createdAt,value
2022-11-19T00:01:22.474Z,92943.19
2022-11-19T00:03:52.600Z,92975.28
2022-11-19T00:06:22.575Z,92965.34
2022-11-19T00:08:49.364Z,92964.81
2022-11-19T00:11:41.004Z,92963.69
2022-11-19T00:14:09.556Z,92958.97
2022-11-19T00:16:36.238Z,92963.31
2022-11-19T00:19:03.021Z,92952.09
2022-11-19T00:21:29.626Z,92957.72
2022-11-19T00:23:57.014Z,92952.59
2022-11-19T00:26:24.393Z,92965.66
2022-11-19T00:28:51.058Z,92972.00
2022-11-19T00:31:18.288Z,92965.75
2022-11-19T00:33:45.847Z,92969.28
2022-11-19T00:36:14.384Z,92978.78
2022-11-19T00:38:41.281Z,92993.28
2022-11-19T00:41:08.000Z,92989.41
2022-11-19T00:43:47.281Z,93000.72
2022-11-19T00:46:23.012Z,92994.06
2022-11-19T00:48:50.954Z,93007.06
2022-11-19T00:51:18.958Z,93005.84
2022-11-19T00:53:46.509Z,93009.88
2022-11-19T00:56:17.135Z,93005.69
2022-11-19T00:58:44.225Z,93018.84
2022-11-19T01:01:11.704Z,93011.66
2022-11-19T01:03:40.037Z,93014.59
2022-11-19T01:06:08.266Z,92998.56
2022-11-19T01:08:35.418Z,92995.81
2022-11-19T01:11:29.406Z,93009.00
2022-11-19T01:13:56.318Z,93012.66
2022-11-19T01:16:27.173Z,93017.28
2022-11-19T01:18:54.117Z,93010.59
2022-11-19T01:21:22.933Z,93007.91
2022-11-19T01:23:49.808Z,93014.91
2022-11-19T01:26:17.122Z,93005.38
2022-11-19T01:28:44.452Z,93018.03
2022-11-19T01:31:14.056Z,93019.38
2022-11-19T01:33:41.018Z,93031.53
2022-11-19T01:36:11.556Z,93041.25
2022-11-19T01:38:38.248Z,93037.91
2022-11-19T01:41:05.308Z,93037.09
2022-11-19T01:43:46.887Z,93036.91
2022-11-19T01:46:22.209Z,93038.69
2022-11-19T01:49:08.513Z,93033.66
2022-11-19T01:51:35.919Z,93028.09
2022-11-19T01:54:12.114Z,93026.91
2022-11-19T01:56:38.959Z,93018.75
2022-11-19T01:59:10.174Z,93009.16
2022-11-19T02:01:36.926Z,93010.66
2022-11-19T02:04:04.912Z,93015.09
2022-11-19T02:06:32.516Z,93013.38
2022-11-19T02:08:59.279Z,93017.66
2022-11-19T02:11:25.980Z,93021.44
2022-11-19T02:14:17.422Z,93022.97
2022-11-19T02:16:49.739Z,93022.00
2022-11-19T02:19:54.766Z,93024.34
2022-11-19T02:22:39.739Z,93025.88
2022-11-19T02:25:26.667Z,93032.19
2022-11-19T02:28:08.819Z,93033.66
2022-11-19T02:30:48.121Z,93024.75
2022-11-19T02:33:26.159Z,93035.66
2022-11-19T02:36:10.267Z,93027.16
2022-11-19T02:38:41.729Z,93028.34
2022-11-19T02:41:45.359Z,93030.09
2022-11-19T02:44:38.301Z,93027.31
2022-11-19T02:47:07.649Z,93023.19
2022-11-19T02:49:36.329Z,93033.38
2022-11-19T02:52:04.104Z,93034.44
2022-11-19T02:54:30.839Z,93033.13
2022-11-19T02:57:01.172Z,93038.25
2022-11-19T03:00:09.011Z,93048.22
2022-11-19T03:03:02.886Z,93055.44
2022-11-19T03:05:32.472Z,93055.38
2022-11-19T03:07:59.452Z,93062.88
2022-11-19T03:10:33.221Z,93063.72
2022-11-19T03:13:45.365Z,93062.16
2022-11-19T03:16:38.289Z,93072.25
2022-11-19T03:19:14.316Z,93073.16
2022-11-19T03:21:48.050Z,93079.25
2022-11-19T03:24:40.364Z,93074.09
2022-11-19T03:27:41.929Z,93078.97
2022-11-19T03:30:09.639Z,93078.94
2022-11-19T03:32:40.078Z,93083.63
2022-11-19T03:35:13.828Z,93076.16
2022-11-19T03:37:43.550Z,93083.13
2022-11-19T03:40:11.382Z,93094.97
2022-11-19T03:42:39.579Z,93090.25
2022-11-19T03:45:13.348Z,93087.31
2022-11-19T03:47:41.060Z,93088.16
2022-11-19T03:50:17.027Z,93088.09
2022-11-19T03:52:44.118Z,93090.06
2022-11-19T03:55:10.948Z,93085.78
2022-11-19T03:57:37.766Z,93085.56
2022-11-19T04:00:05.547Z,93073.91
2022-11-19T04:02:32.229Z,93079.47
2022-11-19T04:04:58.849Z,93085.41
2022-11-19T04:07:25.578Z,93085.81
2022-11-19T04:09:52.288Z,93087.75
2022-11-19T04:12:24.412Z,93090.22
2022-11-19T04:14:51.345Z,93092.00
2022-11-19T04:17:19.280Z,93087.88
2022-11-19T04:19:46.856Z,93088.06
2022-11-19T04:22:13.551Z,93095.56
2022-11-19T04:24:40.284Z,93099.09
2022-11-19T04:27:06.958Z,93095.19
2022-11-19T04:29:33.590Z,93097.75
2022-11-19T04:32:00.339Z,93097.38
2022-11-19T04:34:26.999Z,93094.81
2022-11-19T04:36:53.689Z,93100.94
2022-11-19T04:39:20.754Z,93108.06
2022-11-19T04:41:47.728Z,93104.53
2022-11-19T04:44:14.415Z,93110.06
2022-11-19T04:46:41.099Z,93115.00
2022-11-19T04:49:07.895Z,93111.47
2022-11-19T04:51:34.608Z,93112.25
2022-11-19T04:54:01.267Z,93116.00
2022-11-19T04:56:29.276Z,93114.47
2022-11-19T04:58:55.930Z,93115.22
2022-11-19T05:01:22.689Z,93118.81
2022-11-19T05:03:49.376Z,93106.97
2022-11-19T05:06:16.119Z,93116.41
2022-11-19T05:08:42.877Z,93115.06
2022-11-19T05:11:09.699Z,93121.03
2022-11-19T05:13:36.479Z,93123.59
2022-11-19T05:16:03.642Z,93127.56
2022-11-19T05:18:30.259Z,93117.47
2022-11-19T05:20:56.843Z,93129.72
2022-11-19T05:23:24.324Z,93124.19
2022-11-19T05:25:51.153Z,93123.59
2022-11-19T05:28:17.754Z,93126.56
2022-11-19T05:30:44.376Z,93131.72
2022-11-19T05:33:10.972Z,93132.72
2022-11-19T05:35:37.555Z,93145.16
2022-11-19T05:38:04.334Z,93147.53
2022-11-19T05:40:30.944Z,93151.47
2022-11-19T05:43:04.115Z,93146.13
2022-11-19T05:45:30.720Z,93154.03
2022-11-19T05:47:57.364Z,93155.81
2022-11-19T05:50:24.017Z,93148.31
2022-11-19T05:52:50.882Z,93146.16
2022-11-19T05:55:17.579Z,93143.00
2022-11-19T05:57:44.174Z,93157.19
2022-11-19T06:00:11.618Z,93155.41
2022-11-19T06:02:38.245Z,93157.19
2022-11-19T06:05:05.673Z,93151.06
2022-11-19T06:07:32.331Z,93154.81
2022-11-19T06:09:58.932Z,93157.19
2022-11-19T06:12:25.553Z,93157.97
2022-11-19T06:14:52.152Z,93162.53
2022-11-19T06:17:18.724Z,93151.28
2022-11-19T06:19:45.288Z,93159.94
2022-11-19T06:22:11.876Z,93167.84
2022-11-19T06:24:38.494Z,93170.59
2022-11-19T06:27:05.028Z,93165.84
2022-11-19T06:29:31.596Z,93176.50
2022-11-19T06:31:58.176Z,93180.06
2022-11-19T06:34:24.752Z,93180.47
2022-11-19T06:36:51.306Z,93186.19
2022-11-19T06:39:19.132Z,93182.06
2022-11-19T06:41:48.833Z,93188.56
2022-11-19T06:44:15.576Z,93191.53
2022-11-19T06:46:42.150Z,93200.81
2022-11-19T06:49:11.475Z,93177.31
2022-11-19T06:51:40.899Z,93187.38
2022-11-19T06:54:07.448Z,93195.91
2022-11-19T06:56:34.064Z,93200.81
2022-11-19T06:59:00.726Z,93180.88
2022-11-19T07:01:27.435Z,93197.84
2022-11-19T07:03:54.049Z,93202.00
2022-11-19T07:06:20.733Z,93210.88
2022-11-19T07:08:47.322Z,93194.06
2022-11-19T07:11:29.236Z,93186.25
2022-11-19T07:13:59.871Z,93194.00
2022-11-19T07:16:32.349Z,93212.28
2022-11-19T07:19:00.134Z,93249.06
2022-11-19T07:21:27.495Z,93278.94
2022-11-19T07:23:55.563Z,93277.66
2022-11-19T07:26:22.359Z,93286.72
2022-11-19T07:28:49.119Z,93302.47
2022-11-19T07:31:15.868Z,93296.56
2022-11-19T07:33:42.767Z,93289.56
2022-11-19T07:36:15.472Z,93286.63
2022-11-19T07:38:45.011Z,93287.75
2022-11-19T07:41:43.896Z,93288.00
2022-11-19T07:44:10.547Z,93288.38
2022-11-19T07:46:37.243Z,93291.59
2022-11-19T07:49:04.039Z,93283.50
2022-11-19T07:51:30.681Z,93286.28
2022-11-19T07:53:57.546Z,93284.97
2022-11-19T07:56:24.637Z,93282.81
2022-11-19T07:58:51.528Z,93279.63
2022-11-19T08:01:20.792Z,93278.06
2022-11-19T08:03:52.023Z,93264.47
2022-11-19T08:06:24.180Z,93270.38
2022-11-19T08:08:50.918Z,93277.56
2022-11-19T08:11:18.294Z,93271.78
2022-11-19T08:13:45.019Z,93274.25
2022-11-19T08:16:34.915Z,93284.81
2022-11-19T08:19:12.575Z,93280.38
2022-11-19T08:21:45.017Z,93289.59
2022-11-19T08:24:12.696Z,93278.66
2022-11-19T08:26:40.857Z,93277.13
2022-11-19T08:29:11.621Z,93273.66
2022-11-19T08:31:42.317Z,93277.47
2022-11-19T08:34:08.971Z,93270.13
2022-11-19T08:36:35.769Z,93271.75
2022-11-19T08:39:04.130Z,93278.63
2022-11-19T08:41:49.427Z,93280.03
2022-11-19T08:44:17.818Z,93283.41
2022-11-19T08:46:45.037Z,93284.13
2022-11-19T08:49:12.317Z,93284.41
2022-11-19T08:51:39.229Z,93292.38
2022-11-19T08:54:06.130Z,93298.09
2022-11-19T08:56:33.308Z,93301.28
2022-11-19T08:59:02.743Z,93302.94
2022-11-19T09:01:30.747Z,93311.25
2022-11-19T09:03:57.558Z,93312.31
2022-11-19T09:06:24.348Z,93318.47
2022-11-19T09:08:51.096Z,93320.38
2022-11-19T09:11:19.236Z,93323.31
2022-11-19T09:13:45.996Z,93315.00
2022-11-19T09:16:12.815Z,93326.09
2022-11-19T09:18:42.063Z,93333.53
2022-11-19T09:21:10.276Z,93324.00
2022-11-19T09:23:37.570Z,93332.53
2022-11-19T09:26:07.262Z,93339.06
2022-11-19T09:28:33.984Z,93343.22
2022-11-19T09:31:02.094Z,93341.94
2022-11-19T09:33:34.526Z,93349.53
2022-11-19T09:36:01.957Z,93342.75
2022-11-19T09:38:31.580Z,93351.44
2022-11-19T09:41:24.812Z,93343.94
2022-11-19T09:44:09.841Z,93348.72
2022-11-19T09:47:12.097Z,93353.91
2022-11-19T09:50:04.905Z,93359.53
2022-11-19T09:52:33.986Z,93352.09
2022-11-19T09:55:01.216Z,93359.66
2022-11-19T09:57:50.514Z,93358.16
2022-11-19T10:00:23.444Z,93342.03
2022-11-19T10:02:50.406Z,93347.03
2022-11-19T10:05:26.931Z,93336.03
2022-11-19T10:08:08.220Z,93333.00
2022-11-19T10:10:42.697Z,93316.91
2022-11-19T10:13:19.548Z,93321.38
2022-11-19T10:15:59.212Z,93324.41
2022-11-19T10:18:41.028Z,93324.75
2022-11-19T10:21:10.161Z,93312.63
2022-11-19T10:23:45.104Z,93311.84
2022-11-19T10:26:16.039Z,93303.47
2022-11-19T10:28:56.310Z,93318.59
2022-11-19T10:31:33.329Z,93318.91
2022-11-19T10:34:05.740Z,93309.06
2022-11-19T10:36:39.440Z,93311.41
2022-11-19T10:39:20.528Z,93315.16
2022-11-19T10:41:58.595Z,93320.97
2022-11-19T10:44:41.887Z,93319.13
2022-11-19T10:47:16.944Z,93305.03
2022-11-19T10:49:43.801Z,93306.66
2022-11-19T10:52:26.428Z,93314.31
2022-11-19T10:54:56.974Z,93319.34
2022-11-19T10:57:24.265Z,93301.16
2022-11-19T10:59:52.567Z,93305.59
2022-11-19T11:02:28.283Z,93298.91
2022-11-19T11:05:06.298Z,93286.09
2022-11-19T11:07:53.487Z,93292.19
2022-11-19T11:10:33.929Z,93278.91
2022-11-19T11:13:26.633Z,93293.41
2022-11-19T11:15:54.354Z,93287.50
2022-11-19T11:18:25.917Z,93278.78
2022-11-19T11:20:52.808Z,93283.53
2022-11-19T11:23:22.923Z,93288.13
2022-11-19T11:26:09.737Z,93284.88
2022-11-19T11:28:36.725Z,93285.84
2022-11-19T11:31:06.611Z,93284.19
2022-11-19T11:33:37.854Z,93272.88
2022-11-19T11:36:14.540Z,93279.28
2022-11-19T11:38:47.542Z,93269.38
2022-11-19T11:42:02.397Z,93269.00
2022-11-19T11:44:18.106Z,93273.53
2022-11-19T11:46:55.666Z,93267.50
2022-11-19T11:49:29.401Z,93263.34
2022-11-19T11:52:34.929Z,93261.00
2022-11-19T11:55:15.457Z,93258.84
2022-11-19T11:58:28.000Z,93253.88
2022-11-19T12:00:56.151Z,93256.22
2022-11-19T12:03:22.902Z,93259.72
2022-11-19T12:05:55.455Z,93259.34
2022-11-19T12:08:27.058Z,93265.13
2022-11-19T12:11:05.922Z,93259.44
2022-11-19T12:13:39.059Z,93252.34
2022-11-19T12:16:50.886Z,93253.22
2022-11-19T12:19:20.636Z,93254.91
2022-11-19T12:21:53.476Z,93250.72
2022-11-19T12:24:26.016Z,93243.09
2022-11-19T12:27:11.399Z,93245.88
2022-11-19T12:29:53.227Z,93244.00
2022-11-19T12:32:37.774Z,93243.50
2022-11-19T12:35:08.273Z,93255.94
2022-11-19T12:37:59.068Z,93246.50
2022-11-19T12:40:42.635Z,93239.13
2022-11-19T12:43:31.155Z,93243.75
2022-11-19T12:46:19.108Z,93241.81
2022-11-19T12:49:09.955Z,93243.56
2022-11-19T12:51:45.552Z,93244.50
2022-11-19T12:54:35.215Z,93234.91
2022-11-19T12:57:23.293Z,93240.69
2022-11-19T13:00:05.301Z,93244.03
2022-11-19T13:02:40.665Z,93246.94
2022-11-19T13:05:20.370Z,93254.13
2022-11-19T13:07:53.302Z,93232.78
2022-11-19T13:10:25.340Z,93236.06
2022-11-19T13:12:54.954Z,93237.19
2022-11-19T13:15:35.682Z,93248.03
2022-11-19T13:18:04.279Z,93259.19
2022-11-19T13:20:53.965Z,93256.13
2022-11-19T13:23:25.707Z,93256.22
2022-11-19T13:26:29.563Z,93256.66
2022-11-19T13:29:03.215Z,93257.38
2022-11-19T13:31:43.521Z,93252.75
2022-11-19T13:34:33.578Z,93252.38
2022-11-19T13:37:05.492Z,93261.34
2022-11-19T13:39:40.101Z,93250.50
2022-11-19T13:42:26.276Z,93249.09
2022-11-19T13:44:52.919Z,93245.31
2022-11-19T13:47:24.067Z,93246.41
2022-11-19T13:50:03.613Z,93259.97
2022-11-19T13:52:34.618Z,93257.06
2022-11-19T13:55:01.396Z,93231.09
2022-11-19T13:57:48.285Z,93253.84
2022-11-19T14:00:26.947Z,93258.00
2022-11-19T14:03:08.057Z,93249.69
2022-11-19T14:05:47.052Z,93251.31
2022-11-19T14:08:19.556Z,93261.72
2022-11-19T14:11:10.965Z,93253.88
2022-11-19T14:13:53.259Z,93257.56
2022-11-19T14:17:02.383Z,93253.25
2022-11-19T14:19:47.424Z,93244.53
2022-11-19T14:23:12.445Z,93251.91
2022-11-19T14:25:57.437Z,93261.41
2022-11-19T14:28:48.270Z,93269.34
2022-11-19T14:31:16.162Z,93266.19
2022-11-19T14:33:48.761Z,93261.72
2022-11-19T14:36:22.419Z,93271.94
2022-11-19T14:39:00.598Z,93275.03
2022-11-19T14:41:33.039Z,93274.38
2022-11-19T14:44:24.570Z,93270.06
2022-11-19T14:46:51.439Z,93284.81
2022-11-19T14:49:33.107Z,93279.28
2022-11-19T14:51:59.857Z,93275.50
2022-11-19T14:54:45.206Z,93288.53
2022-11-19T14:57:26.395Z,93278.84
2022-11-19T14:59:57.108Z,93283.44
2022-11-19T15:02:31.196Z,93275.63
2022-11-19T15:05:08.623Z,93277.19
2022-11-19T15:07:38.552Z,93281.81
2022-11-19T15:10:14.019Z,93275.72
2022-11-19T15:12:43.511Z,93279.00
2022-11-19T15:15:19.333Z,93275.06
2022-11-19T15:18:13.317Z,93267.66
2022-11-19T15:21:22.440Z,93265.97
2022-11-19T15:23:59.986Z,93256.81
2022-11-19T15:26:35.878Z,93251.66
2022-11-19T15:29:02.526Z,93269.03
2022-11-19T15:31:36.720Z,93262.44
2022-11-19T15:34:38.573Z,93268.75
2022-11-19T15:37:16.232Z,93249.31
2022-11-19T15:39:45.414Z,93262.63
2022-11-19T15:42:15.703Z,93259.25
2022-11-19T15:44:50.638Z,93264.63
2022-11-19T15:47:50.177Z,93265.78
2022-11-19T15:50:19.616Z,93275.28
2022-11-19T15:52:59.957Z,93286.31
2022-11-19T15:55:30.772Z,93293.72
2022-11-19T15:58:11.954Z,93293.78
2022-11-19T16:00:46.035Z,93302.09
2022-11-19T16:03:13.081Z,93306.28
2022-11-19T16:05:40.053Z,93313.91
2022-11-19T16:08:09.216Z,93312.78
2022-11-19T16:10:42.840Z,93310.00
2022-11-19T16:13:42.288Z,93312.34
2022-11-19T16:16:54.920Z,93310.75
2022-11-19T16:19:22.209Z,93311.66
2022-11-19T16:21:59.328Z,93324.69
2022-11-19T16:24:45.398Z,93331.31
2022-11-19T16:27:16.232Z,93327.72
2022-11-19T16:29:43.937Z,93332.00
2022-11-19T16:32:17.003Z,93343.69
2022-11-19T16:34:43.973Z,93344.91
2022-11-19T16:37:19.425Z,93349.22
2022-11-19T16:39:53.080Z,93347.88
2022-11-19T16:42:26.534Z,93344.22
2022-11-19T16:44:57.100Z,93344.00
2022-11-19T16:47:32.637Z,93350.53
2022-11-19T16:50:24.784Z,93345.38
2022-11-19T16:52:51.554Z,93352.53
2022-11-19T16:55:18.058Z,93352.97
2022-11-19T16:57:52.534Z,93353.25
2022-11-19T17:00:21.642Z,93353.13
2022-11-19T17:02:48.481Z,93354.91
2022-11-19T17:05:16.804Z,93354.13
2022-11-19T17:07:48.956Z,93348.00
2022-11-19T17:10:18.717Z,93351.06
2022-11-19T17:12:52.383Z,93357.41
2022-11-19T17:15:31.163Z,93360.81
2022-11-19T17:18:10.379Z,93359.81
2022-11-19T17:20:36.904Z,93353.94
2022-11-19T17:23:10.491Z,93354.78
2022-11-19T17:25:46.285Z,93343.88
2022-11-19T17:28:36.572Z,93350.34
2022-11-19T17:31:06.993Z,93350.19
2022-11-19T17:33:36.632Z,93354.06
2022-11-19T17:36:03.714Z,93356.66
2022-11-19T17:38:31.468Z,93370.78
2022-11-19T17:41:02.564Z,93359.00
2022-11-19T17:43:55.974Z,93357.34
2022-11-19T17:46:26.865Z,93359.28
2022-11-19T17:48:53.512Z,93357.06
2022-11-19T17:51:24.551Z,93360.53
2022-11-19T17:53:52.198Z,93361.22
2022-11-19T17:56:27.697Z,93367.25
2022-11-19T17:58:54.983Z,93361.41
2022-11-19T18:01:22.152Z,93358.81
2022-11-19T18:03:49.112Z,93345.94
2022-11-19T18:06:17.393Z,93349.59
2022-11-19T18:08:44.202Z,93354.44
2022-11-19T18:11:16.887Z,93353.44
2022-11-19T18:13:44.924Z,93351.13
2022-11-19T18:16:17.204Z,93341.22
2022-11-19T18:18:43.806Z,93344.31
2022-11-19T18:21:15.659Z,93343.78
2022-11-19T18:23:43.163Z,93320.50
2022-11-19T18:26:13.421Z,93343.97
2022-11-19T18:28:43.475Z,93341.44
2022-11-19T18:31:20.891Z,93337.88
2022-11-19T18:33:50.614Z,93344.22
2022-11-19T18:36:18.187Z,93336.41
2022-11-19T18:38:45.002Z,93341.66
2022-11-19T18:41:13.365Z,93346.59
2022-11-19T18:43:58.649Z,93357.50
2022-11-19T18:46:26.073Z,93361.25
2022-11-19T18:48:53.813Z,93361.00
2022-11-19T18:51:21.010Z,93364.44
2022-11-19T18:53:47.987Z,93369.81
2022-11-19T18:56:15.894Z,93361.84
2022-11-19T18:58:42.516Z,93376.13
2022-11-19T19:01:09.545Z,93365.41
2022-11-19T19:03:36.117Z,93371.69
2022-11-19T19:06:07.618Z,93372.88
2022-11-19T19:08:34.255Z,93364.94
2022-11-19T19:11:19.903Z,93370.66
2022-11-19T19:13:46.655Z,93376.41
2022-11-19T19:16:13.948Z,93378.78
2022-11-19T19:18:40.491Z,93378.09
2022-11-19T19:21:18.961Z,93383.03
2022-11-19T19:23:45.871Z,93370.97
2022-11-19T19:26:13.906Z,93380.66
2022-11-19T19:28:40.572Z,93383.25
2022-11-19T19:31:07.383Z,93377.50
2022-11-19T19:33:34.148Z,93376.13
2022-11-19T19:36:04.418Z,93382.44
2022-11-19T19:38:31.434Z,93383.47
2022-11-19T19:41:10.369Z,93384.25
2022-11-19T19:43:36.965Z,93382.88
2022-11-19T19:46:13.553Z,93380.97
2022-11-19T19:48:40.501Z,93377.59
2022-11-19T19:51:07.097Z,93373.50
2022-11-19T19:53:34.155Z,93377.84
2022-11-19T19:56:02.525Z,93369.66
2022-11-19T19:58:29.159Z,93381.72
2022-11-19T20:00:55.785Z,93374.16
2022-11-19T20:03:25.464Z,93382.88
2022-11-19T20:05:52.143Z,93386.50
2022-11-19T20:08:18.712Z,93395.03
2022-11-19T20:10:45.288Z,93386.09
2022-11-19T20:13:32.090Z,93377.44
2022-11-19T20:16:05.214Z,93391.84
2022-11-19T20:18:33.371Z,93393.63
2022-11-19T20:21:00.804Z,93399.34
2022-11-19T20:23:31.016Z,93396.78
2022-11-19T20:26:02.423Z,93397.19
2022-11-19T20:28:29.571Z,93384.31
2022-11-19T20:31:10.503Z,93390.44
2022-11-19T20:33:38.508Z,93385.69
2022-11-19T20:36:06.668Z,93383.31
2022-11-19T20:38:37.080Z,93385.31
2022-11-19T20:41:06.301Z,93382.78
2022-11-19T20:43:53.103Z,93384.56
2022-11-19T20:46:21.211Z,93375.88
2022-11-19T20:48:48.581Z,93371.78
2022-11-19T20:51:19.947Z,93379.28
2022-11-19T20:53:46.903Z,93374.75
2022-11-19T20:56:14.541Z,93378.31
2022-11-19T20:58:41.188Z,93376.97
2022-11-19T21:01:10.410Z,93379.72
2022-11-19T21:03:37.608Z,93378.75
2022-11-19T21:06:06.603Z,93378.75
2022-11-19T21:08:33.810Z,93374.03
2022-11-19T21:11:02.813Z,93380.72
2022-11-19T21:13:29.963Z,93371.66
2022-11-19T21:15:57.391Z,93391.44
2022-11-19T21:18:24.616Z,93383.53
2022-11-19T21:20:51.971Z,93387.47
2022-11-19T21:23:21.849Z,93388.28
2022-11-19T21:25:48.515Z,93395.75
2022-11-19T21:28:15.078Z,93399.13
2022-11-19T21:30:41.773Z,93403.88
2022-11-19T21:33:08.420Z,93410.41
2022-11-19T21:35:39.807Z,93399.94
2022-11-19T21:38:11.887Z,93413.16
2022-11-19T21:40:39.484Z,93412.38
2022-11-19T21:43:06.652Z,93408.00
2022-11-19T21:45:33.280Z,93414.72
2022-11-19T21:47:59.973Z,93422.66
2022-11-19T21:50:26.903Z,93418.31
2022-11-19T21:52:53.489Z,93424.44
2022-11-19T21:55:20.064Z,93432.34
2022-11-19T21:57:46.668Z,93425.03
2022-11-19T22:00:13.751Z,93421.06
2022-11-19T22:02:40.562Z,93413.97
2022-11-19T22:05:07.663Z,93418.72
2022-11-19T22:07:34.414Z,93407.84
2022-11-19T22:10:01.015Z,93419.09
2022-11-19T22:12:27.734Z,93418.91
2022-11-19T22:14:54.278Z,93426.41
2022-11-19T22:17:20.864Z,93423.06
2022-11-19T22:19:47.512Z,93418.91
2022-11-19T22:22:14.125Z,93420.69
2022-11-19T22:24:40.651Z,93421.09
2022-11-19T22:27:07.244Z,93416.72
2022-11-19T22:29:33.779Z,93407.44
2022-11-19T22:32:00.395Z,93412.75
2022-11-19T22:34:26.985Z,93414.56
2022-11-19T22:36:53.573Z,93413.97
2022-11-19T22:39:20.539Z,93419.13
2022-11-19T22:41:47.343Z,93417.53
2022-11-19T22:44:14.185Z,93425.84
2022-11-19T22:46:40.772Z,93421.69
2022-11-19T22:49:07.466Z,93415.75
2022-11-19T22:51:34.112Z,93412.41
2022-11-19T22:54:00.714Z,93403.91
2022-11-19T22:56:29.472Z,93408.44
2022-11-19T22:58:56.897Z,93399.94
2022-11-19T23:01:23.475Z,93411.78
2022-11-19T23:03:50.818Z,93405.84
2022-11-19T23:06:17.821Z,93408.03
2022-11-19T23:08:45.587Z,93408.84
2022-11-19T23:11:13.372Z,93407.25
2022-11-19T23:13:41.743Z,93401.72
2022-11-19T23:16:13.297Z,93393.41
2022-11-19T23:18:51.021Z,93396.97
2022-11-19T23:21:19.696Z,93391.41
2022-11-19T23:23:46.377Z,93387.69
2022-11-19T23:26:15.498Z,93388.88
2022-11-19T23:28:42.589Z,93386.69
2022-11-19T23:31:13.968Z,93386.69
2022-11-19T23:33:41.222Z,93371.88
2022-11-19T23:36:11.262Z,93372.84
2022-11-19T23:38:38.794Z,93376.00
2022-11-19T23:41:08.287Z,93380.75
2022-11-19T23:43:35.752Z,93385.50
2022-11-19T23:46:06.752Z,93383.53
2022-11-19T23:48:34.146Z,93387.09
2022-11-19T23:51:06.313Z,93391.06
2022-11-19T23:53:33.075Z,93384.34
2022-11-19T23:55:59.958Z,93386.50
2022-11-19T23:58:26.841Z,93381.56
